sensor_id;sensor_type;location;lat;lon;timestamp;P1;P2;P0
27143;PMS1003;14672;50.250;8.312;2022-07-23T00:00:58;37.75;37.00;23.75
27143;PMS1003;14672;50.250;8.312;2022-07-23T00:03:24;62.75;52.00;31.25
27143;PMS1003;14672;50.250;8.312;2022-07-23T00:05:50;26.00;25.25;16.00
27143;PMS1003;14672;50.250;8.312;2022-07-23T00:08:17;77.00;62.75;38.75
27143;PMS1003;14672;50.250;8.312;2022-07-23T00:10:43;70.00;57.75;37.00
27143;PMS1003;14672;50.250;8.312;2022-07-23T00:13:09;60.75;50.75;32.50
27143;PMS1003;14672;50.250;8.312;2022-07-23T00:15:35;103.75;95.00;60.00
27143;PMS1003;14672;50.250;8.312;2022-07-23T00:18:01;82.75;65.75;41.25
27143;PMS1003;14672;50.250;8.312;2022-07-23T00:20:27;63.50;53.25;32.00
27143;PMS1003;14672;50.250;8.312;2022-07-23T00:22:54;89.75;69.50;44.00
27143;PMS1003;14672;50.250;8.312;2022-07-23T00:25:21;77.25;61.00;38.50
27143;PMS1003;14672;50.250;8.312;2022-07-23T00:27:51;36.60;33.60;22.40
27143;PMS1003;14672;50.250;8.312;2022-07-23T00:30:17;86.50;68.25;44.50
27143;PMS1003;14672;50.250;8.312;2022-07-23T00:32:47;59.00;50.80;31.00
27143;PMS1003;14672;50.250;8.312;2022-07-23T00:35:22;33.00;31.75;18.50
27143;PMS1003;14672;50.250;8.312;2022-07-23T00:37:54;32.80;31.00;19.20
27143;PMS1003;14672;50.250;8.312;2022-07-23T00:40:22;55.00;46.60;29.80
27143;PMS1003;14672;50.250;8.312;2022-07-23T00:42:48;44.60;42.20;24.40
27143;PMS1003;14672;50.250;8.312;2022-07-23T00:45:14;67.00;56.25;36.00
27143;PMS1003;14672;50.250;8.312;2022-07-23T00:47:40;29.25;26.50;17.00
27143;PMS1003;14672;50.250;8.312;2022-07-23T00:50:07;115.00;105.25;68.25
27143;PMS1003;14672;50.250;8.312;2022-07-23T00:52:34;70.50;58.25;36.75
27143;PMS1003;14672;50.250;8.312;2022-07-23T00:55:03;42.60;39.60;23.80
27143;PMS1003;14672;50.250;8.312;2022-07-23T00:57:30;27.00;26.00;17.25
27143;PMS1003;14672;50.250;8.312;2022-07-23T00:59:57;26.00;26.00;17.50
27143;PMS1003;14672;50.250;8.312;2022-07-23T01:02:24;66.00;54.75;35.00
27143;PMS1003;14672;50.250;8.312;2022-07-23T01:04:51;65.80;52.00;31.40
27143;PMS1003;14672;50.250;8.312;2022-07-23T01:07:18;29.00;26.75;16.75
27143;PMS1003;14672;50.250;8.312;2022-07-23T01:09:45;30.00;29.00;18.00
27143;PMS1003;14672;50.250;8.312;2022-07-23T01:12:11;25.00;23.25;12.00
27143;PMS1003;14672;50.250;8.312;2022-07-23T01:14:38;31.67;28.67;16.00
27143;PMS1003;14672;50.250;8.312;2022-07-23T01:17:07;163.00;141.67;79.33
27143;PMS1003;14672;50.250;8.312;2022-07-23T01:19:32;125.00;113.00;66.33
27143;PMS1003;14672;50.250;8.312;2022-07-23T01:21:58;60.25;50.50;30.00
27143;PMS1003;14672;50.250;8.312;2022-07-23T01:24:29;30.75;29.75;16.00
27143;PMS1003;14672;50.250;8.312;2022-07-23T01:26:55;28.50;26.00;14.50
27143;PMS1003;14672;50.250;8.312;2022-07-23T01:29:21;21.67;21.67;12.67
27143;PMS1003;14672;50.250;8.312;2022-07-23T01:31:47;27.00;24.50;14.00
27143;PMS1003;14672;50.250;8.312;2022-07-23T01:34:14;23.50;23.25;14.25
27143;PMS1003;14672;50.250;8.312;2022-07-23T01:36:40;19.50;19.25;11.00
27143;PMS1003;14672;50.250;8.312;2022-07-23T01:39:06;24.67;24.00;14.67
27143;PMS1003;14672;50.250;8.312;2022-07-23T01:41:33;21.50;21.00;11.00
27143;PMS1003;14672;50.250;8.312;2022-07-23T01:43:59;22.00;22.00;11.25
27143;PMS1003;14672;50.250;8.312;2022-07-23T01:46:25;21.25;21.25;11.00
27143;PMS1003;14672;50.250;8.312;2022-07-23T01:48:51;24.00;22.00;13.00
27143;PMS1003;14672;50.250;8.312;2022-07-23T01:51:17;25.00;23.00;12.67
27143;PMS1003;14672;50.250;8.312;2022-07-23T01:53:43;21.00;21.00;12.00
27143;PMS1003;14672;50.250;8.312;2022-07-23T01:56:09;18.75;18.75;12.00
27143;PMS1003;14672;50.250;8.312;2022-07-23T01:58:35;20.33;18.67;10.33
27143;PMS1003;14672;50.250;8.312;2022-07-23T02:01:01;21.00;21.00;12.67
27143;PMS1003;14672;50.250;8.312;2022-07-23T02:03:27;19.00;18.33;11.00
27143;PMS1003;14672;50.250;8.312;2022-07-23T02:05:53;21.25;20.25;10.00
27143;PMS1003;14672;50.250;8.312;2022-07-23T02:08:19;20.25;19.75;12.00
27143;PMS1003;14672;50.250;8.312;2022-07-23T02:10:45;21.25;21.25;12.25
27143;PMS1003;14672;50.250;8.312;2022-07-23T02:13:11;23.75;22.25;13.50
27143;PMS1003;14672;50.250;8.312;2022-07-23T02:15:37;20.00;20.00;9.33
27143;PMS1003;14672;50.250;8.312;2022-07-23T02:18:03;24.33;23.00;14.00
27143;PMS1003;14672;50.250;8.312;2022-07-23T02:20:29;21.00;21.00;11.75
27143;PMS1003;14672;50.250;8.312;2022-07-23T02:22:55;29.67;28.33;16.00
27143;PMS1003;14672;50.250;8.312;2022-07-23T02:25:20;32.00;31.00;19.50
27143;PMS1003;14672;50.250;8.312;2022-07-23T02:27:46;27.33;26.67;15.33
27143;PMS1003;14672;50.250;8.312;2022-07-23T02:30:12;24.67;24.00;15.67
27143;PMS1003;14672;50.250;8.312;2022-07-23T02:32:38;22.25;22.25;13.00
27143;PMS1003;14672;50.250;8.312;2022-07-23T02:35:05;24.00;24.00;14.33
27143;PMS1003;14672;50.250;8.312;2022-07-23T02:37:31;21.75;21.75;12.50
27143;PMS1003;14672;50.250;8.312;2022-07-23T02:39:58;21.25;21.25;13.75
27143;PMS1003;14672;50.250;8.312;2022-07-23T02:42:24;22.00;21.00;13.25
27143;PMS1003;14672;50.250;8.312;2022-07-23T02:44:51;25.00;24.00;15.00
27143;PMS1003;14672;50.250;8.312;2022-07-23T02:47:17;26.50;24.50;14.00
27143;PMS1003;14672;50.250;8.312;2022-07-23T02:49:43;22.75;20.50;10.00
27143;PMS1003;14672;50.250;8.312;2022-07-23T02:52:09;21.00;21.00;13.33
27143;PMS1003;14672;50.250;8.312;2022-07-23T02:54:36;23.25;20.50;11.50
27143;PMS1003;14672;50.250;8.312;2022-07-23T02:57:03;30.00;23.75;13.25
27143;PMS1003;14672;50.250;8.312;2022-07-23T02:59:29;29.00;28.25;16.50
27143;PMS1003;14672;50.250;8.312;2022-07-23T03:01:55;25.25;24.25;11.50
27143;PMS1003;14672;50.250;8.312;2022-07-23T03:04:24;24.50;24.25;15.00
27143;PMS1003;14672;50.250;8.312;2022-07-23T03:06:50;27.50;27.50;17.00
27143;PMS1003;14672;50.250;8.312;2022-07-23T03:09:17;22.25;20.50;11.75
27143;PMS1003;14672;50.250;8.312;2022-07-23T03:11:43;23.00;23.00;14.00
27143;PMS1003;14672;50.250;8.312;2022-07-23T03:14:09;28.00;25.33;13.33
27143;PMS1003;14672;50.250;8.312;2022-07-23T03:16:41;22.00;21.25;11.75
27143;PMS1003;14672;50.250;8.312;2022-07-23T03:19:10;22.00;21.00;12.25
27143;PMS1003;14672;50.250;8.312;2022-07-23T03:21:36;23.67;23.67;13.67
27143;PMS1003;14672;50.250;8.312;2022-07-23T03:24:08;24.25;24.25;14.00
27143;PMS1003;14672;50.250;8.312;2022-07-23T03:26:37;23.50;22.00;12.25
27143;PMS1003;14672;50.250;8.312;2022-07-23T03:29:06;21.00;21.00;12.33
27143;PMS1003;14672;50.250;8.312;2022-07-23T03:31:37;19.75;19.75;11.00
27143;PMS1003;14672;50.250;8.312;2022-07-23T03:34:12;20.75;20.75;11.00
27143;PMS1003;14672;50.250;8.312;2022-07-23T03:36:40;20.75;20.75;10.50
27143;PMS1003;14672;50.250;8.312;2022-07-23T03:39:09;25.00;22.00;13.50
27143;PMS1003;14672;50.250;8.312;2022-07-23T03:41:35;22.67;22.67;13.00
27143;PMS1003;14672;50.250;8.312;2022-07-23T03:44:03;25.33;24.00;12.33
27143;PMS1003;14672;50.250;8.312;2022-07-23T03:46:38;23.50;22.00;12.00
27143;PMS1003;14672;50.250;8.312;2022-07-23T03:49:04;22.25;22.00;11.00
27143;PMS1003;14672;50.250;8.312;2022-07-23T03:51:30;23.33;22.33;10.33
27143;PMS1003;14672;50.250;8.312;2022-07-23T03:53:58;22.25;21.50;11.75
27143;PMS1003;14672;50.250;8.312;2022-07-23T03:56:27;28.50;27.25;13.75
27143;PMS1003;14672;50.250;8.312;2022-07-23T03:58:56;21.25;21.25;11.75
27143;PMS1003;14672;50.250;8.312;2022-07-23T04:01:22;23.00;22.67;11.67
27143;PMS1003;14672;50.250;8.312;2022-07-23T04:03:47;21.00;21.00;12.00
27143;PMS1003;14672;50.250;8.312;2022-07-23T04:06:13;23.00;22.33;13.00
27143;PMS1003;14672;50.250;8.312;2022-07-23T04:08:39;23.67;22.00;13.00
27143;PMS1003;14672;50.250;8.312;2022-07-23T04:11:05;22.33;21.33;11.33
27143;PMS1003;14672;50.250;8.312;2022-07-23T04:13:31;26.00;25.00;15.75
27143;PMS1003;14672;50.250;8.312;2022-07-23T04:15:57;25.75;24.50;13.50
27143;PMS1003;14672;50.250;8.312;2022-07-23T04:18:24;23.75;23.75;13.50
27143;PMS1003;14672;50.250;8.312;2022-07-23T04:20:50;21.00;21.00;13.25
27143;PMS1003;14672;50.250;8.312;2022-07-23T04:23:17;23.75;23.00;12.75
27143;PMS1003;14672;50.250;8.312;2022-07-23T04:25:43;19.50;19.50;12.00
27143;PMS1003;14672;50.250;8.312;2022-07-23T04:28:09;23.00;22.00;12.33
27143;PMS1003;14672;50.250;8.312;2022-07-23T04:30:34;20.33;20.33;12.33
27143;PMS1003;14672;50.250;8.312;2022-07-23T04:33:01;19.00;19.00;10.50
27143;PMS1003;14672;50.250;8.312;2022-07-23T04:35:30;22.00;21.25;13.25
27143;PMS1003;14672;50.250;8.312;2022-07-23T04:37:56;23.33;22.00;13.33
27143;PMS1003;14672;50.250;8.312;2022-07-23T04:40:22;21.33;21.33;11.00
27143;PMS1003;14672;50.250;8.312;2022-07-23T04:42:48;23.67;22.33;12.33
27143;PMS1003;14672;50.250;8.312;2022-07-23T04:45:14;23.33;23.33;13.00
27143;PMS1003;14672;50.250;8.312;2022-07-23T04:47:39;27.33;26.33;13.00
27143;PMS1003;14672;50.250;8.312;2022-07-23T04:50:05;24.33;22.67;13.00
27143;PMS1003;14672;50.250;8.312;2022-07-23T04:52:32;28.25;25.50;15.00
27143;PMS1003;14672;50.250;8.312;2022-07-23T04:54:57;26.33;24.00;13.00
27143;PMS1003;14672;50.250;8.312;2022-07-23T04:57:23;21.67;21.33;12.00
27143;PMS1003;14672;50.250;8.312;2022-07-23T04:59:49;21.33;21.33;13.00
27143;PMS1003;14672;50.250;8.312;2022-07-23T05:02:15;20.50;20.50;12.50
27143;PMS1003;14672;50.250;8.312;2022-07-23T05:04:44;27.00;24.33;13.00
27143;PMS1003;14672;50.250;8.312;2022-07-23T05:07:10;20.50;20.50;11.50
27143;PMS1003;14672;50.250;8.312;2022-07-23T05:09:36;21.00;20.25;12.00
27143;PMS1003;14672;50.250;8.312;2022-07-23T05:12:02;24.00;23.00;14.00
27143;PMS1003;14672;50.250;8.312;2022-07-23T05:14:28;25.25;22.25;12.25
27143;PMS1003;14672;50.250;8.312;2022-07-23T05:16:54;24.67;24.00;15.00
27143;PMS1003;14672;50.250;8.312;2022-07-23T05:19:20;23.67;22.67;13.00
27143;PMS1003;14672;50.250;8.312;2022-07-23T05:21:46;24.00;24.00;12.75
27143;PMS1003;14672;50.250;8.312;2022-07-23T05:24:12;20.33;20.00;12.00
27143;PMS1003;14672;50.250;8.312;2022-07-23T05:26:38;25.00;25.00;14.33
27143;PMS1003;14672;50.250;8.312;2022-07-23T05:29:04;29.67;26.67;16.00
27143;PMS1003;14672;50.250;8.312;2022-07-23T05:31:30;23.67;23.33;13.67
27143;PMS1003;14672;50.250;8.312;2022-07-23T05:33:56;30.75;26.00;14.25
27143;PMS1003;14672;50.250;8.312;2022-07-23T05:36:22;24.67;24.67;15.00
27143;PMS1003;14672;50.250;8.312;2022-07-23T05:38:48;24.00;24.00;12.00
27143;PMS1003;14672;50.250;8.312;2022-07-23T05:41:14;26.00;23.67;13.00
27143;PMS1003;14672;50.250;8.312;2022-07-23T05:43:45;23.50;21.25;12.25
27143;PMS1003;14672;50.250;8.312;2022-07-23T05:46:11;23.67;22.67;13.00
27143;PMS1003;14672;50.250;8.312;2022-07-23T05:48:37;24.33;23.67;12.67
27143;PMS1003;14672;50.250;8.312;2022-07-23T05:51:03;30.67;30.67;15.00
27143;PMS1003;14672;50.250;8.312;2022-07-23T05:53:32;24.75;22.75;12.50
27143;PMS1003;14672;50.250;8.312;2022-07-23T05:55:59;24.75;23.50;13.25
27143;PMS1003;14672;50.250;8.312;2022-07-23T05:58:25;25.67;24.00;14.00
27143;PMS1003;14672;50.250;8.312;2022-07-23T06:00:50;22.33;22.33;12.67
27143;PMS1003;14672;50.250;8.312;2022-07-23T06:03:16;25.33;25.00;11.00
27143;PMS1003;14672;50.250;8.312;2022-07-23T06:05:43;24.75;24.00;12.25
27143;PMS1003;14672;50.250;8.312;2022-07-23T06:08:09;21.00;21.00;11.33
27143;PMS1003;14672;50.250;8.312;2022-07-23T06:10:35;25.75;24.25;13.00
27143;PMS1003;14672;50.250;8.312;2022-07-23T06:13:01;20.33;20.33;12.00
27143;PMS1003;14672;50.250;8.312;2022-07-23T06:15:27;28.00;25.75;12.00
27143;PMS1003;14672;50.250;8.312;2022-07-23T06:17:53;20.25;20.25;12.25
27143;PMS1003;14672;50.250;8.312;2022-07-23T06:20:19;20.33;18.67;11.67
27143;PMS1003;14672;50.250;8.312;2022-07-23T06:22:45;20.25;19.75;10.75
27143;PMS1003;14672;50.250;8.312;2022-07-23T06:25:11;18.67;18.00;11.33
27143;PMS1003;14672;50.250;8.312;2022-07-23T06:27:37;21.00;20.00;9.67
27143;PMS1003;14672;50.250;8.312;2022-07-23T06:30:02;17.00;17.00;9.00
27143;PMS1003;14672;50.250;8.312;2022-07-23T06:32:29;18.25;17.25;11.25
27143;PMS1003;14672;50.250;8.312;2022-07-23T06:34:55;19.33;18.00;10.33
27143;PMS1003;14672;50.250;8.312;2022-07-23T06:37:20;19.00;18.33;9.00
27143;PMS1003;14672;50.250;8.312;2022-07-23T06:39:46;18.00;17.00;8.33
27143;PMS1003;14672;50.250;8.312;2022-07-23T06:42:12;19.00;19.00;10.33
27143;PMS1003;14672;50.250;8.312;2022-07-23T06:44:38;21.67;20.33;12.00
27143;PMS1003;14672;50.250;8.312;2022-07-23T06:47:04;16.33;15.00;7.33
27143;PMS1003;14672;50.250;8.312;2022-07-23T15:05:18;17.75;17.75;11.75
27143;PMS1003;14672;50.250;8.312;2022-07-23T15:07:44;15.75;15.00;9.00
27143;PMS1003;14672;50.250;8.312;2022-07-23T15:10:11;11.00;11.00;6.50
27143;PMS1003;14672;50.250;8.312;2022-07-23T15:12:37;14.00;14.00;7.75
27143;PMS1003;14672;50.250;8.312;2022-07-23T15:15:03;14.00;13.67;8.00
27143;PMS1003;14672;50.250;8.312;2022-07-23T15:17:30;14.50;14.50;9.00
27143;PMS1003;14672;50.250;8.312;2022-07-23T15:19:58;17.00;16.00;9.00
27143;PMS1003;14672;50.250;8.312;2022-07-23T15:22:24;20.75;20.75;13.00
27143;PMS1003;14672;50.250;8.312;2022-07-23T15:24:50;14.50;14.50;7.75
27143;PMS1003;14672;50.250;8.312;2022-07-23T15:27:17;16.00;15.50;10.00
27143;PMS1003;14672;50.250;8.312;2022-07-23T15:29:43;13.67;13.67;9.00
27143;PMS1003;14672;50.250;8.312;2022-07-23T15:32:10;13.75;13.75;8.75
27143;PMS1003;14672;50.250;8.312;2022-07-23T15:34:37;18.50;18.00;10.25
27143;PMS1003;14672;50.250;8.312;2022-07-23T15:37:04;14.00;14.00;8.25
27143;PMS1003;14672;50.250;8.312;2022-07-23T15:39:33;15.00;15.00;8.25
27143;PMS1003;14672;50.250;8.312;2022-07-23T15:41:59;18.00;18.00;10.00
27143;PMS1003;14672;50.250;8.312;2022-07-23T15:44:26;13.25;13.25;8.25
27143;PMS1003;14672;50.250;8.312;2022-07-23T15:46:52;16.25;16.00;8.25
27143;PMS1003;14672;50.250;8.312;2022-07-23T15:49:18;13.75;13.75;8.00
27143;PMS1003;14672;50.250;8.312;2022-07-23T15:51:45;13.33;13.33;8.00
27143;PMS1003;14672;50.250;8.312;2022-07-23T15:54:10;16.25;14.75;9.00
27143;PMS1003;14672;50.250;8.312;2022-07-23T15:56:36;15.00;15.00;9.00
27143;PMS1003;14672;50.250;8.312;2022-07-23T15:59:02;14.33;14.33;9.00
27143;PMS1003;14672;50.250;8.312;2022-07-23T16:01:28;13.50;12.75;8.00
27143;PMS1003;14672;50.250;8.312;2022-07-23T16:03:54;18.33;16.33;8.67
27143;PMS1003;14672;50.250;8.312;2022-07-23T16:06:23;12.75;12.25;7.25
27143;PMS1003;14672;50.250;8.312;2022-07-23T16:08:49;12.50;12.50;8.00
27143;PMS1003;14672;50.250;8.312;2022-07-23T16:11:15;13.75;12.75;7.75
27143;PMS1003;14672;50.250;8.312;2022-07-23T16:13:41;12.33;12.33;8.67
27143;PMS1003;14672;50.250;8.312;2022-07-23T16:16:08;14.75;13.75;7.25
27143;PMS1003;14672;50.250;8.312;2022-07-23T16:18:35;14.00;14.00;9.00
27143;PMS1003;14672;50.250;8.312;2022-07-23T16:21:02;18.75;18.75;12.25
27143;PMS1003;14672;50.250;8.312;2022-07-23T16:23:29;13.50;13.50;7.25
27143;PMS1003;14672;50.250;8.312;2022-07-23T16:25:54;13.00;13.00;9.00
27143;PMS1003;14672;50.250;8.312;2022-07-23T16:28:20;13.00;13.00;8.00
27143;PMS1003;14672;50.250;8.312;2022-07-23T16:30:46;15.33;15.33;8.67
27143;PMS1003;14672;50.250;8.312;2022-07-23T16:33:12;11.00;11.00;6.33
27143;PMS1003;14672;50.250;8.312;2022-07-23T16:35:38;13.75;13.75;8.50
27143;PMS1003;14672;50.250;8.312;2022-07-23T16:38:04;15.67;13.33;8.00
27143;PMS1003;14672;50.250;8.312;2022-07-23T16:40:30;27.50;26.00;16.75
27143;PMS1003;14672;50.250;8.312;2022-07-23T16:42:57;17.25;16.25;10.25
27143;PMS1003;14672;50.250;8.312;2022-07-23T16:45:23;15.25;14.25;9.00
27143;PMS1003;14672;50.250;8.312;2022-07-23T16:47:50;15.50;15.00;9.25
27143;PMS1003;14672;50.250;8.312;2022-07-23T16:50:16;15.25;15.25;10.00
27143;PMS1003;14672;50.250;8.312;2022-07-23T16:52:42;19.20;19.20;13.40
27143;PMS1003;14672;50.250;8.312;2022-07-23T16:55:08;15.75;15.75;9.75
27143;PMS1003;14672;50.250;8.312;2022-07-23T16:57:36;20.75;19.00;11.00
27143;PMS1003;14672;50.250;8.312;2022-07-23T17:00:03;22.80;22.80;13.80
27143;PMS1003;14672;50.250;8.312;2022-07-23T17:02:31;21.75;21.50;13.25
27143;PMS1003;14672;50.250;8.312;2022-07-23T17:04:57;17.00;17.00;10.00
27143;PMS1003;14672;50.250;8.312;2022-07-23T17:07:23;16.67;16.00;10.00
27143;PMS1003;14672;50.250;8.312;2022-07-23T17:09:49;15.00;15.00;9.75
27143;PMS1003;14672;50.250;8.312;2022-07-23T17:12:15;14.33;14.00;10.00
27143;PMS1003;14672;50.250;8.312;2022-07-23T17:14:41;16.67;16.67;11.33
27143;PMS1003;14672;50.250;8.312;2022-07-23T17:17:07;15.25;15.25;9.75
27143;PMS1003;14672;50.250;8.312;2022-07-23T17:19:36;15.25;14.25;8.25
27143;PMS1003;14672;50.250;8.312;2022-07-23T17:22:03;14.00;14.00;9.00
27143;PMS1003;14672;50.250;8.312;2022-07-23T17:24:29;20.50;20.50;12.25
27143;PMS1003;14672;50.250;8.312;2022-07-23T17:26:55;18.60;17.80;11.60
27143;PMS1003;14672;50.250;8.312;2022-07-23T17:29:22;16.50;16.50;10.00
27143;PMS1003;14672;50.250;8.312;2022-07-23T17:31:47;21.33;20.33;11.00
27143;PMS1003;14672;50.250;8.312;2022-07-23T17:34:13;17.00;16.33;9.33
27143;PMS1003;14672;50.250;8.312;2022-07-23T17:36:39;16.25;15.50;9.50
27143;PMS1003;14672;50.250;8.312;2022-07-23T17:39:06;14.75;14.75;9.50
27143;PMS1003;14672;50.250;8.312;2022-07-23T17:41:33;14.00;13.25;8.00
27143;PMS1003;14672;50.250;8.312;2022-07-23T17:43:59;15.75;15.75;9.75
27143;PMS1003;14672;50.250;8.312;2022-07-23T17:46:26;14.50;14.50;8.25
27143;PMS1003;14672;50.250;8.312;2022-07-23T17:48:53;15.00;15.00;10.25
27143;PMS1003;14672;50.250;8.312;2022-07-23T17:51:20;14.25;14.25;8.50
27143;PMS1003;14672;50.250;8.312;2022-07-23T17:53:46;14.00;14.00;9.00
27143;PMS1003;14672;50.250;8.312;2022-07-23T17:56:13;13.75;13.75;8.00
27143;PMS1003;14672;50.250;8.312;2022-07-23T17:58:39;13.67;13.67;9.67
27143;PMS1003;14672;50.250;8.312;2022-07-23T18:01:05;16.00;15.75;10.25
27143;PMS1003;14672;50.250;8.312;2022-07-23T18:03:32;15.75;14.25;7.50
27143;PMS1003;14672;50.250;8.312;2022-07-23T18:05:58;14.25;14.00;8.75
27143;PMS1003;14672;50.250;8.312;2022-07-23T18:08:24;13.33;13.33;9.00
27143;PMS1003;14672;50.250;8.312;2022-07-23T18:10:51;14.25;14.25;9.00
27143;PMS1003;14672;50.250;8.312;2022-07-23T18:13:18;13.00;13.00;8.00
27143;PMS1003;14672;50.250;8.312;2022-07-23T18:15:44;15.25;15.00;8.75
27143;PMS1003;14672;50.250;8.312;2022-07-23T18:18:11;14.25;14.25;8.75
27143;PMS1003;14672;50.250;8.312;2022-07-23T18:20:37;14.25;13.50;8.25
27143;PMS1003;14672;50.250;8.312;2022-07-23T18:23:03;12.25;12.25;7.50
27143;PMS1003;14672;50.250;8.312;2022-07-23T18:25:29;15.75;15.75;11.00
27143;PMS1003;14672;50.250;8.312;2022-07-23T18:27:55;14.50;14.50;9.00
27143;PMS1003;14672;50.250;8.312;2022-07-23T18:30:21;15.00;15.00;8.33
27143;PMS1003;14672;50.250;8.312;2022-07-23T18:32:47;14.50;14.50;9.25
27143;PMS1003;14672;50.250;8.312;2022-07-23T18:35:13;13.00;13.00;8.00
27143;PMS1003;14672;50.250;8.312;2022-07-23T18:37:39;16.00;16.00;10.00
27143;PMS1003;14672;50.250;8.312;2022-07-23T18:40:06;13.75;13.75;8.50
27143;PMS1003;14672;50.250;8.312;2022-07-23T18:42:34;16.00;16.00;10.75
27143;PMS1003;14672;50.250;8.312;2022-07-23T18:45:01;16.75;16.75;9.25
27143;PMS1003;14672;50.250;8.312;2022-07-23T18:47:29;19.00;17.00;10.00
27143;PMS1003;14672;50.250;8.312;2022-07-23T18:49:55;15.00;14.25;8.25
27143;PMS1003;14672;50.250;8.312;2022-07-23T18:52:22;14.75;14.75;9.00
27143;PMS1003;14672;50.250;8.312;2022-07-23T18:54:48;13.75;13.75;9.25
27143;PMS1003;14672;50.250;8.312;2022-07-23T18:57:14;13.75;13.25;8.00
27143;PMS1003;14672;50.250;8.312;2022-07-23T18:59:40;18.00;16.50;10.50
27143;PMS1003;14672;50.250;8.312;2022-07-23T19:02:06;15.25;15.25;9.00
27143;PMS1003;14672;50.250;8.312;2022-07-23T19:04:32;20.75;19.25;10.00
27143;PMS1003;14672;50.250;8.312;2022-07-23T19:06:58;15.00;15.00;9.00
27143;PMS1003;14672;50.250;8.312;2022-07-23T19:09:25;17.75;16.50;11.25
27143;PMS1003;14672;50.250;8.312;2022-07-23T19:11:51;18.00;17.25;9.00
27143;PMS1003;14672;50.250;8.312;2022-07-23T19:14:17;15.00;15.00;10.00
27143;PMS1003;14672;50.250;8.312;2022-07-23T19:16:43;15.50;15.50;9.00
27143;PMS1003;14672;50.250;8.312;2022-07-23T19:19:10;17.25;16.25;10.00
27143;PMS1003;14672;50.250;8.312;2022-07-23T19:21:36;18.50;17.75;10.50
27143;PMS1003;14672;50.250;8.312;2022-07-23T19:24:02;32.00;27.75;14.50
27143;PMS1003;14672;50.250;8.312;2022-07-23T19:26:29;28.50;22.75;12.25
27143;PMS1003;14672;50.250;8.312;2022-07-23T19:28:55;42.25;29.75;15.25
27143;PMS1003;14672;50.250;8.312;2022-07-23T19:31:21;45.75;32.50;16.00
27143;PMS1003;14672;50.250;8.312;2022-07-23T19:33:47;44.75;36.25;17.25
27143;PMS1003;14672;50.250;8.312;2022-07-23T19:36:14;55.80;40.60;19.60
27143;PMS1003;14672;50.250;8.312;2022-07-23T19:38:40;58.00;39.80;19.80
27143;PMS1003;14672;50.250;8.312;2022-07-23T19:41:07;60.00;39.80;18.00
27143;PMS1003;14672;50.250;8.312;2022-07-23T19:43:35;48.80;38.00;17.80
27143;PMS1003;14672;50.250;8.312;2022-07-23T19:46:01;46.40;34.40;17.00
27143;PMS1003;14672;50.250;8.312;2022-07-23T19:48:28;40.75;29.50;13.00
27143;PMS1003;14672;50.250;8.312;2022-07-23T19:50:54;29.33;23.00;13.00
27143;PMS1003;14672;50.250;8.312;2022-07-23T19:53:20;26.75;25.00;13.50
27143;PMS1003;14672;50.250;8.312;2022-07-23T19:55:46;29.50;23.50;10.75
27143;PMS1003;14672;50.250;8.312;2022-07-23T19:58:12;19.67;18.67;11.00
27143;PMS1003;14672;50.250;8.312;2022-07-23T20:00:39;19.75;18.25;11.00
27143;PMS1003;14672;50.250;8.312;2022-07-23T20:03:05;18.00;18.00;10.75
27143;PMS1003;14672;50.250;8.312;2022-07-23T20:05:31;21.25;19.50;9.50
27143;PMS1003;14672;50.250;8.312;2022-07-23T20:07:57;15.75;15.50;9.00
27143;PMS1003;14672;50.250;8.312;2022-07-23T20:10:24;16.50;15.75;9.50
27143;PMS1003;14672;50.250;8.312;2022-07-23T20:12:50;17.75;17.75;10.50
27143;PMS1003;14672;50.250;8.312;2022-07-23T20:15:18;18.00;18.00;10.75
27143;PMS1003;14672;50.250;8.312;2022-07-23T20:17:45;19.25;18.50;9.50
27143;PMS1003;14672;50.250;8.312;2022-07-23T20:20:12;19.25;18.25;10.00
27143;PMS1003;14672;50.250;8.312;2022-07-23T20:22:39;16.00;15.50;8.50
27143;PMS1003;14672;50.250;8.312;2022-07-23T20:25:05;19.75;19.50;9.75
27143;PMS1003;14672;50.250;8.312;2022-07-23T20:27:33;20.75;20.75;14.00
27143;PMS1003;14672;50.250;8.312;2022-07-23T20:29:59;18.33;17.00;9.67
27143;PMS1003;14672;50.250;8.312;2022-07-23T20:32:24;19.33;19.00;12.00
27143;PMS1003;14672;50.250;8.312;2022-07-23T20:34:50;17.00;16.67;8.33
27143;PMS1003;14672;50.250;8.312;2022-07-23T20:37:16;19.67;19.33;13.00
27143;PMS1003;14672;50.250;8.312;2022-07-23T20:39:43;20.00;20.00;10.00
27143;PMS1003;14672;50.250;8.312;2022-07-23T20:42:09;19.00;18.00;10.25
27143;PMS1003;14672;50.250;8.312;2022-07-23T20:44:35;16.33;15.67;8.00
27143;PMS1003;14672;50.250;8.312;2022-07-23T20:47:01;18.00;18.00;10.00
27143;PMS1003;14672;50.250;8.312;2022-07-23T20:49:27;19.00;18.25;11.75
27143;PMS1003;14672;50.250;8.312;2022-07-23T20:51:54;13.75;13.75;8.75
27143;PMS1003;14672;50.250;8.312;2022-07-23T20:54:20;19.75;19.75;10.00
27143;PMS1003;14672;50.250;8.312;2022-07-23T20:56:46;16.33;15.00;8.00
27143;PMS1003;14672;50.250;8.312;2022-07-23T20:59:12;19.33;19.00;9.00
27143;PMS1003;14672;50.250;8.312;2022-07-23T21:01:38;15.00;15.00;9.00
27143;PMS1003;14672;50.250;8.312;2022-07-23T21:04:04;18.67;18.33;10.33
27143;PMS1003;14672;50.250;8.312;2022-07-23T21:06:30;18.00;17.00;11.00
27143;PMS1003;14672;50.250;8.312;2022-07-23T21:08:56;23.25;21.00;10.50
27143;PMS1003;14672;50.250;8.312;2022-07-23T21:11:22;18.33;18.33;10.00
27143;PMS1003;14672;50.250;8.312;2022-07-23T21:13:48;18.00;18.00;11.00
27143;PMS1003;14672;50.250;8.312;2022-07-23T21:16:14;19.50;19.00;9.00
27143;PMS1003;14672;50.250;8.312;2022-07-23T21:18:40;23.25;21.75;11.00
27143;PMS1003;14672;50.250;8.312;2022-07-23T21:21:06;21.00;21.00;14.00
27143;PMS1003;14672;50.250;8.312;2022-07-23T21:23:43;16.75;16.75;10.00
27143;PMS1003;14672;50.250;8.312;2022-07-23T21:26:12;17.75;17.50;8.75
27143;PMS1003;14672;50.250;8.312;2022-07-23T21:28:41;19.25;19.00;10.75
27143;PMS1003;14672;50.250;8.312;2022-07-23T21:31:07;16.00;15.00;8.50
27143;PMS1003;14672;50.250;8.312;2022-07-23T21:33:34;19.00;19.00;11.75
27143;PMS1003;14672;50.250;8.312;2022-07-23T21:36:00;19.25;19.25;11.75
27143;PMS1003;14672;50.250;8.312;2022-07-23T21:38:28;15.25;15.25;9.25
27143;PMS1003;14672;50.250;8.312;2022-07-23T21:40:53;18.67;18.33;9.00
27143;PMS1003;14672;50.250;8.312;2022-07-23T21:43:20;16.75;15.75;8.00
27143;PMS1003;14672;50.250;8.312;2022-07-23T21:45:48;17.50;17.50;10.00
27143;PMS1003;14672;50.250;8.312;2022-07-23T21:48:15;17.25;17.25;9.50
27143;PMS1003;14672;50.250;8.312;2022-07-23T21:50:42;19.25;18.00;10.75
27143;PMS1003;14672;50.250;8.312;2022-07-23T21:53:09;17.00;17.00;8.00
27143;PMS1003;14672;50.250;8.312;2022-07-23T21:55:35;18.75;18.50;9.25
27143;PMS1003;14672;50.250;8.312;2022-07-23T21:58:02;18.25;17.25;9.50
27143;PMS1003;14672;50.250;8.312;2022-07-23T22:00:29;17.00;16.75;9.75